Home > Products > Valid Products > TAF

000
FTUS43 KLOT 012200 AAB
TAFDPA
TAF AMD
KDPA 012200Z 0122/0218 21009KT P6SM FEW040
     FM020200 23006KT 6SM BR SCT070 SCT250
     FM021500 25008KT P6SM FEW050 SCT250=



000
FTUS43 KLOT 012200 AAB
TAFORD
TAF AMD
KORD 012200Z 0122/0224 21010KT P6SM FEW040
     FM020200 23006KT 6SM BR SCT070 SCT250
     FM021500 25008KT P6SM FEW050 SCT250=



000
FTUS43 KLOT 012200 AAB
TAFRFD
TAF AMD
KRFD 012200Z 0122/0218 21009KT P6SM SCT040
     FM020200 23006KT 6SM BR SCT070 SCT250
     FM021500 25008KT P6SM FEW050 SCT250=



000
FTUS43 KLOT 012200 AAB
TAFGYY
TAF AMD
KGYY 012200Z 0122/0218 22011KT P6SM FEW200
     FM020200 22006KT 6SM BR SCT070 SCT250
     FM021500 25008KT P6SM FEW050 SCT250=



000
FTUS43 KLOT 012200 AAC
TAFMDW
TAF AMD
KMDW 012200Z 0122/0218 21010KT P6SM FEW040
     FM020200 23006KT 6SM BR SCT070 SCT250
     FM021500 25008KT P6SM FEW050 SCT250=



000
FTUS43 KLOT 011955 AAA
TAFDPA
TAF AMD
KDPA 011955Z 0120/0218 23009KT P6SM SCT040
     FM020200 23006KT 6SM BR SCT070 SCT250
     FM021500 25008KT P6SM FEW050 SCT250=



000
FTUS43 KLOT 011955 AAA
TAFGYY
TAF AMD
KGYY 011955Z 0120/0218 22011G16KT P6SM SCT040
     FM020200 22006KT 6SM BR SCT070 SCT250
     FM021500 25008KT P6SM FEW050 SCT250=



000
FTUS43 KLOT 011955 AAA
TAFORD
TAF AMD
KORD 011955Z 0120/0224 21010G16KT P6SM SCT040
     FM020200 23006KT 6SM BR SCT070 SCT250
     FM021500 25008KT P6SM FEW050 SCT250=



000
FTUS43 KLOT 011955 AAA
TAFRFD
TAF AMD
KRFD 011955Z 0120/0218 21009KT P6SM SCT040
     FM020200 23006KT 6SM BR SCT070 SCT250
     FM021500 25008KT P6SM FEW050 SCT250=



000
FTUS43 KLOT 011955 AAB
TAFMDW
TAF AMD
KMDW 011955Z 0120/0218 21010G16KT P6SM SCT040
     FM020200 23006KT 6SM BR SCT070 SCT250
     FM021500 25008KT P6SM FEW050 SCT250=



000
FTUS43 KLOT 011955 AAA
TAFGYY
TAF AMD
KGYY 011955Z 0120/0218 22011G16KT P6SM SCT040
     FM020200 22006KT 6SM BR SCT070 SCT250
     FM021500 25008KT P6SM FEW050 SCT250=



000
FTUS43 KLOT 011749 AAA
TAFMDW
TAF AMD
KMDW 011749Z 0118/0218 20010KT P6SM SCT040
      TEMPO 0118/0119 19012G20KT BKN030 BKN070
     FM020300 23006KT 6SM BR FEW070 SCT250
     FM021500 25008KT P6SM FEW050 SCT250=



000
FTUS43 KLOT 011749 AAA
TAFMDW
TAF AMD
KMDW 011749Z 0118/0218 20010KT P6SM SCT040
      TEMPO 0118/0119 19012G20KT BKN030 BKN070
     FM020300 23006KT 6SM BR FEW070 SCT250
     FM021500 25008KT P6SM FEW050 SCT250=



000
FTUS43 KLOT 011739
TAFGYY
TAF
KGYY 011739Z 0118/0218 19011KT P6SM SCT030 BKN060
     FM020300 22006KT 6SM BR FEW070 SCT250
     FM021500 25008KT P6SM FEW050 SCT250=



000
FTUS43 KLOT 011739
TAFMDW
TAF
KMDW 011739Z 0118/0218 20010KT P6SM SCT040
      TEMPO 0118/0119 BKN030 BKN070
     FM020300 23006KT 6SM BR FEW070 SCT250
     FM021500 25008KT P6SM FEW050 SCT250=



000
FTUS43 KLOT 011739
TAFGYY
TAF
KGYY 011739Z 0118/0218 19011KT P6SM SCT030 BKN060
     FM020300 22006KT 6SM BR FEW070 SCT250
     FM021500 25008KT P6SM FEW050 SCT250=



000
FTUS43 KLOT 011739
TAFDPA
TAF
KDPA 011739Z 0118/0218 20009KT P6SM SCT040
     FM020300 23006KT 6SM BR FEW070 SCT250
     FM021500 25008KT P6SM FEW050 SCT250=



000
FTUS43 KLOT 011739
TAFORD
TAF
KORD 011739Z 0118/0224 20010KT P6SM SCT040
     FM020300 23006KT 6SM BR FEW070 SCT250
     FM021500 25008KT P6SM FEW050 SCT250=



000
FTUS43 KLOT 011739
TAFRFD
TAF
KRFD 011739Z 0118/0218 21009KT P6SM SCT040
     FM020300 23006KT 6SM BR FEW060 SCT250
     FM021500 25008KT P6SM FEW050 SCT250=



000
FTUS43 KLOT 011739
TAFGYY
TAF
KGYY 011739Z 0118/0218 19011KT P6SM SCT030 BKN060
     FM020300 22006KT 6SM BR FEW070 SCT250
     FM021500 25008KT P6SM FEW050 SCT250=



000
FTUS43 KLOT 011739
TAFDPA
TAF
KDPA 011739Z 0118/0218 20009KT P6SM SCT040
     FM020300 23006KT 6SM BR FEW070 SCT250
     FM021500 25008KT P6SM FEW050 SCT250=



000
FTUS43 KLOT 011739
TAFRFD
TAF
KRFD 011739Z 0118/0218 21009KT P6SM SCT040
     FM020300 23006KT 6SM BR FEW060 SCT250
     FM021500 25008KT P6SM FEW050 SCT250=



000
FTUS43 KLOT 011739
TAFORD
TAF
KORD 011739Z 0118/0224 20010KT P6SM SCT040
     FM020300 23006KT 6SM BR FEW070 SCT250
     FM021500 25008KT P6SM FEW050 SCT250=



000
FTUS43 KLOT 011739
TAFMDW
TAF
KMDW 011739Z 0118/0218 20010KT P6SM SCT040
      TEMPO 0118/0119 BKN030 BKN070
     FM020300 23006KT 6SM BR FEW070 SCT250
     FM021500 25008KT P6SM FEW050 SCT250=



000
FTUS43 KLOT 011739
TAFGYY
TAF
KGYY 011739Z 0118/0218 19011KT P6SM SCT030 BKN060
     FM020300 22006KT 6SM BR FEW070 SCT250
     FM021500 25008KT P6SM FEW050 SCT250=



000
FTUS43 KLOT 011611 AAB
TAFGYY
TAF AMD
KGYY 011611Z 0116/0212 21009KT P6SM SCT050
     FM020300 22006KT 6SM BR FEW060 SCT250=



000
FTUS43 KLOT 011611 AAB
TAFDPA
TAF AMD
KDPA 011611Z 0116/0212 21009KT P6SM SCT050
     FM020300 23006KT 6SM BR FEW060 SCT250=



000
FTUS43 KLOT 011611 AAB
TAFGYY
TAF AMD
KGYY 011611Z 0116/0212 21009KT P6SM SCT050
     FM020300 22006KT 6SM BR FEW060 SCT250=



000
FTUS43 KLOT 011611 AAB
TAFORD
TAF AMD
KORD 011611Z 0116/0218 22009KT P6SM SCT050
     FM020300 23006KT 6SM BR FEW060 SCT250=



000
FTUS43 KLOT 011611 AAD
TAFRFD
TAF AMD
KRFD 011611Z 0116/0212 21009KT P6SM SCT050
     FM020300 23006KT 6SM BR FEW040 SCT250=



000
FTUS43 KLOT 011611 AAB
TAFDPA
TAF AMD
KDPA 011611Z 0116/0212 21009KT P6SM SCT050
     FM020300 23006KT 6SM BR FEW060 SCT250=



000
FTUS43 KLOT 011611 AAB
TAFMDW
TAF AMD
KMDW 011611Z 0116/0212 22009KT P6SM SCT050
     FM020300 23006KT 6SM BR FEW060 SCT250=



000
FTUS43 KLOT 011611 AAB
TAFGYY
TAF AMD
KGYY 011611Z 0116/0212 21009KT P6SM SCT050
     FM020300 22006KT 6SM BR FEW060 SCT250=



000
FTUS43 KLOT 011611 AAD
TAFRFD
TAF AMD
KRFD 011611Z 0116/0212 21009KT P6SM SCT050
     FM020300 23006KT 6SM BR FEW040 SCT250=



000
FTUS43 KLOT 011611 AAB
TAFORD
TAF AMD
KORD 011611Z 0116/0218 22009KT P6SM SCT050
     FM020300 23006KT 6SM BR FEW060 SCT250=



000
FTUS43 KLOT 011611 AAB
TAFGYY
TAF AMD
KGYY 011611Z 0116/0212 21009KT P6SM SCT050
     FM020300 22006KT 6SM BR FEW060 SCT250=



000
FTUS43 KLOT 011611 AAB
TAFMDW
TAF AMD
KMDW 011611Z 0116/0212 22009KT P6SM SCT050
     FM020300 23006KT 6SM BR FEW060 SCT250=



000
FTUS43 KLOT 011406 AAC
TAFRFD
TAF AMD
KRFD 011406Z 0114/0212 18004KT 5SM BR BKN070
     FM011500 21009KT P6SM SCT050
     FM020300 23006KT 6SM BR FEW040 SCT250=



000
FTUS43 KLOT 011406 AAC
TAFRFD
TAF AMD
KRFD 011406Z 0114/0212 18004KT 5SM BR BKN070
     FM011500 21009KT P6SM SCT050
     FM020300 23006KT 6SM BR FEW040 SCT250=



000
FTUS43 KLOT 011405 AAA
TAFORD
TAF AMD
KORD 011405Z 0114/0218 21009KT P6SM SCT050
     FM020300 23006KT 6SM BR FEW040 SCT250=



000
FTUS43 KLOT 011405 AAA
TAFGYY
TAF AMD
KGYY 011405Z 0114/0212 21009KT P6SM SCT050
     FM020300 22006KT 6SM BR FEW040 SCT250=



000
FTUS43 KLOT 011405 AAA
TAFMDW
TAF AMD
KMDW 011405Z 0114/0212 22009KT P6SM SCT050
     FM020300 23006KT 6SM BR FEW040 SCT250=



000
FTUS43 KLOT 011405 AAA
TAFRFD
TAF AMD
KRFD 011405Z 0114/0212 21009KT P6SM SCT050
     FM020300 23006KT 6SM BR FEW040 SCT250=



000
FTUS43 KLOT 011405 AAA
TAFDPA
TAF AMD
KDPA 011405Z 0114/0212 21009KT P6SM SCT050
     FM020300 23006KT 6SM BR FEW040 SCT250=



000
FTUS43 KLOT 011405 AAB
TAFRFD
TAF AMD
KRFD 011405Z 0114/0212 18004KT 5SM BR BKN070
     FM011500 21009KT P6SM SCT050
     FM020300 23006KT 6SM BR FEW040 SCT250=



000
FTUS43 KLOT 011120
TAFMDW
TAF
KMDW 011120Z 0112/0212 19004KT P6SM SCT050
     FM011400 22009KT P6SM SCT050
     FM020300 23006KT 6SM BR FEW040 SCT250=



000
FTUS43 KLOT 011120
TAFORD
TAF
KORD 011120Z 0112/0218 19004KT P6SM SCT050
     FM011400 22009KT P6SM SCT050
     FM020300 23006KT 6SM BR FEW040 SCT250=



000
FTUS43 KLOT 011120
TAFGYY
TAF
KGYY 011120Z 0112/0212 19003KT P6SM SCT050
     FM011400 21009KT P6SM SCT050
     FM020300 22006KT 6SM BR FEW040 SCT250=



000
FTUS43 KLOT 011120
TAFDPA
TAF
KDPA 011120Z 0112/0212 18003KT 5SM BR SCT050
     FM011400 21009KT P6SM SCT050
     FM020300 23006KT 6SM BR FEW040 SCT250=



000
FTUS43 KLOT 011120
TAFGYY
TAF
KGYY 011120Z 0112/0212 19003KT P6SM SCT050
     FM011400 21009KT P6SM SCT050
     FM020300 22006KT 6SM BR FEW040 SCT250=



000
FTUS43 KLOT 011120
TAFORD
TAF
KORD 011120Z 0112/0218 19004KT P6SM SCT050
     FM011400 22009KT P6SM SCT050
     FM020300 23006KT 6SM BR FEW040 SCT250=



000
FTUS43 KLOT 011120
TAFGYY
TAF
KGYY 011120Z 0112/0212 19003KT P6SM SCT050
     FM011400 21009KT P6SM SCT050
     FM020300 22006KT 6SM BR FEW040 SCT250=



000
FTUS43 KLOT 011120
TAFGYY
TAF
KGYY 011120Z 0112/0212 19003KT P6SM SCT050
     FM011400 21009KT P6SM SCT050
     FM020300 22006KT 6SM BR FEW040 SCT250=



000
FTUS43 KLOT 011120
TAFDPA
TAF
KDPA 011120Z 0112/0212 18003KT 5SM BR SCT050
     FM011400 21009KT P6SM SCT050
     FM020300 23006KT 6SM BR FEW040 SCT250=



000
FTUS43 KLOT 011120
TAFMDW
TAF
KMDW 011120Z 0112/0212 19004KT P6SM SCT050
     FM011400 22009KT P6SM SCT050
     FM020300 23006KT 6SM BR FEW040 SCT250=



000
FTUS43 KLOT 011120
TAFRFD
TAF
KRFD 011120Z 0112/0212 18004KT 5SM BR SCT050
     FM011400 21009KT P6SM SCT050
     FM020300 23006KT 6SM BR FEW040 SCT250=



000
FTUS43 KLOT 011120
TAFRFD
TAF
KRFD 011120Z 0112/0212 18004KT 5SM BR SCT050
     FM011400 21009KT P6SM SCT050
     FM020300 23006KT 6SM BR FEW040 SCT250=



000
FTUS43 KLOT 010859 AAA
TAFGYY
TAF AMD
KGYY 010859Z 0109/0206 20003KT 4SM BR SCT050
     FM011300 21009KT P6SM SCT050
     FM020300 22006KT 6SM BR FEW040 SCT250=



000
FTUS43 KLOT 010859 AAA
TAFDPA
TAF AMD
KDPA 010859Z 0109/0206 18003KT 4SM BR SCT050
     FM011300 22009KT P6SM SCT050
     FM020300 23006KT 6SM BR FEW040 SCT250=



000
FTUS43 KLOT 010859 AAA
TAFGYY
TAF AMD
KGYY 010859Z 0109/0206 20003KT 4SM BR SCT050
     FM011300 21009KT P6SM SCT050
     FM020300 22006KT 6SM BR FEW040 SCT250=



000
FTUS43 KLOT 010859 AAA
TAFRFD
TAF AMD
KRFD 010859Z 0109/0206 VRB03KT 3SM BR SCT050
      TEMPO 0110/0112 2SM BR
     FM011300 22009KT P6SM SCT050
     FM020300 23006KT 6SM BR FEW040 SCT250=



000
FTUS43 KLOT 010859 AAA
TAFMDW
TAF AMD
KMDW 010859Z 0109/0206 19003KT 6SM BR SCT050
     FM011100 20003KT 5SM BR SCT050
     FM011300 22009KT P6SM SCT050
     FM020300 23006KT 6SM BR FEW040 SCT250=



000
FTUS43 KLOT 010859 AAA
TAFORD
TAF AMD
KORD 010859Z 0109/0212 19003KT 6SM BR SCT050
     FM011100 20003KT 5SM BR SCT050
     FM011300 22009KT P6SM SCT050
     FM020300 23006KT 6SM BR FEW040 SCT250=



000
FTUS43 KLOT 010533
TAFRFD
TAF
KRFD 010533Z 0106/0206 00000KT 6SM BR SKC
     FM010900 VRB03KT 4SM BR SCT040
      TEMPO 0109/0112 2SM BR
     FM011300 22009KT P6SM SCT040
     FM020300 23006KT 6SM BR FEW040 SCT250=



000
FTUS43 KLOT 010533
TAFDPA
TAF
KDPA 010533Z 0106/0206 00000KT 3SM BR SKC
     FM010900 00000KT 2SM BR SCT040
     FM011300 22009KT P6SM SCT040
     FM020300 23006KT 6SM BR FEW040 SCT250=



000
FTUS43 KLOT 010533
TAFGYY
TAF
KGYY 010533Z 0106/0206 19003KT 3SM BR SKC
     FM010900 20003KT 2SM BR SCT040
     FM011300 21009KT P6SM SCT040
     FM020300 22006KT 6SM BR FEW040 SCT250=



000
FTUS43 KLOT 010533
TAFORD
TAF
KORD 010533Z 0106/0212 19003KT 6SM BR SKC
     FM010900 20003KT 4SM BR SCT040
     FM011300 22009KT P6SM SCT040
     FM020300 23006KT 6SM BR FEW040 SCT250=



000
FTUS43 KLOT 010533
TAFMDW
TAF
KMDW 010533Z 0106/0206 19003KT 6SM BR SKC
     FM010900 20003KT 4SM BR SCT040
     FM011300 22009KT P6SM SCT040
     FM020300 23006KT 6SM BR FEW040 SCT250=



000
FTUS43 KLOT 010533
TAFGYY
TAF
KGYY 010533Z 0106/0206 19003KT 3SM BR SKC
     FM010900 20003KT 2SM BR SCT040
     FM011300 21009KT P6SM SCT040
     FM020300 22006KT 6SM BR FEW040 SCT250=



000
FTUS43 KLOT 010325 AAB
TAFGYY
TAF AMD
KGYY 010325Z 0103/0124 20003KT 2SM BR SKC
     FM011300 22009KT P6SM SCT030
     FM011900 20012KT P6SM SCT030 BKN250=



000
FTUS43 KLOT 010325 AAB
TAFGYY
TAF AMD
KGYY 010325Z 0103/0124 20003KT 2SM BR SKC
     FM011300 22009KT P6SM SCT030
     FM011900 20012KT P6SM SCT030 BKN250=



000
FTUS43 KLOT 010325 AAB
TAFGYY
TAF AMD
KGYY 010325Z 0103/0124 20003KT 2SM BR SKC
     FM011300 22009KT P6SM SCT030
     FM011900 20012KT P6SM SCT030 BKN250=



000
FTUS43 KLOT 010301 CCA
TAFDPA
TAF COR
KDPA 010301Z 0103/0124 20003KT 4SM BR SKC
     FM011300 22009KT P6SM SCT030
     FM011900 20012KT P6SM SCT030 BKN250=



000
FTUS43 KLOT 010301 CCA
TAFDPA
TAF COR
KDPA 010301Z 0103/0124 20003KT 4SM BR SKC
     FM011300 22009KT P6SM SCT030
     FM011900 20012KT P6SM SCT030 BKN250=



000
FTUS43 KLOT 010257 AAB
TAFMDW
TAF AMD
KMDW 010257Z 0103/0124 12004KT P6SM SKC
     FM010600 19004KT 6SM BR SKC
     FM010900 20003KT 4SM BR SCT030
     FM011300 22009KT P6SM SCT030
     FM011900 20012KT P6SM SCT030 BKN250=



000
FTUS43 KLOT 010257 AAA
TAFRFD
TAF AMD
KRFD 010257Z 0103/0124 15004KT P6SM SKC
     FM010600 18004KT 5SM BR SKC
      TEMPO 0109/0112 2SM BR
     FM011300 20008KT P6SM SCT030
     FM011800 22012KT P6SM SCT030 BKN250=



000
FTUS43 KLOT 010257 AAA
TAFDPA
TAF AMD
KDPA 010257Z 0103/0124 20003KT 4SM BR BKN030
     FM011300 22009KT P6SM SCT030
     FM011900 20012KT P6SM SCT030 BKN250=



000
FTUS43 KLOT 010257 AAA
TAFGYY
TAF AMD
KGYY 010257Z 0103/0124 20003KT 4SM BR SKC
     FM011300 22009KT P6SM SCT030
     FM011900 20012KT P6SM SCT030 BKN250=



000
FTUS43 KLOT 010257 AAA
TAFGYY
TAF AMD
KGYY 010257Z 0103/0124 20003KT 4SM BR SKC
     FM011300 22009KT P6SM SCT030
     FM011900 20012KT P6SM SCT030 BKN250=



000
FTUS43 KLOT 010257 AAA
TAFORD
TAF AMD
KORD 010257Z 0103/0206 12004KT P6SM SKC
     FM010600 20004KT 6SM BR SKC
     FM010900 20003KT 4SM BR SCT030
     FM011300 22009KT P6SM SCT030
     FM011900 20012KT P6SM SCT030 BKN250=



000
FTUS43 KLOT 312353 AAA
TAFMDW
TAF AMD
KMDW 312353Z 0100/0124 10005KT P6SM FEW040
     FM010100 16005KT P6SM FEW040
     FM010600 19004KT 6SM BR FEW030
     FM010900 20003KT 4SM BR SCT030
     FM011300 22009KT P6SM SCT030
     FM011900 20012KT P6SM SCT030 BKN250=



000
FTUS43 KLOT 312320
TAFGYY
TAF
KGYY 312320Z 0100/0124 VRB03KT P6SM FEW040
     FM010600 19004KT 6SM BR FEW030
     FM010900 20003KT 4SM BR SCT030
     FM011300 22009KT P6SM SCT030
     FM011900 20012KT P6SM SCT030 BKN250=



000
FTUS43 KLOT 312320
TAFMDW
TAF
KMDW 312320Z 0100/0124 20005KT P6SM FEW040
     FM010100 16005KT P6SM FEW040
     FM010600 19004KT 6SM BR FEW030
     FM010900 20003KT 4SM BR SCT030
     FM011300 22009KT P6SM SCT030
     FM011900 20012KT P6SM SCT030 BKN250=



000
FTUS43 KLOT 312320
TAFDPA
TAF
KDPA 312320Z 0100/0124 19005KT P6SM FEW040
     FM010600 19004KT 6SM BR FEW030
     FM010900 20003KT 4SM BR BKN030
     FM011300 22009KT P6SM SCT030
     FM011900 20012KT P6SM SCT030 BKN250=



000
FTUS43 KLOT 312320
TAFRFD
TAF
KRFD 312320Z 0100/0124 17006KT P6SM SCT040
     FM010600 18004KT 5SM BR SCT030
      TEMPO 0109/0112 2SM BR
     FM011300 20008KT P6SM SCT030
     FM011800 22012KT P6SM SCT030 BKN250=



000
FTUS43 KLOT 312320
TAFORD
TAF
KORD 312320Z 0100/0206 12006KT P6SM FEW040
     FM010600 20004KT 6SM BR FEW030
     FM010900 20003KT 4SM BR SCT030
     FM011300 22009KT P6SM SCT030
     FM011900 20012KT P6SM SCT030 BKN250=



000
FTUS43 KLOT 312201 AAB
TAFDPA
TAF AMD
KDPA 312201Z 3122/0118 19006KT P6SM SCT040
     FM010300 19004KT 6SM BR FEW030
     FM010900 VRB03KT 3SM BR BKN030
     FM011300 22009KT P6SM SCT030=



000
FTUS43 KLOT 312201 AAB
TAFGYY
TAF AMD
KGYY 312201Z 3122/0118 VRB04KT 6SM HZ SKC
     FM010300 19004KT 6SM BR FEW030
     FM010900 VRB03KT 4SM BR BKN030
     FM011300 20007KT P6SM SCT030=



000
FTUS43 KLOT 312201 AAB
TAFGYY
TAF AMD
KGYY 312201Z 3122/0118 VRB04KT 6SM HZ SKC
     FM010300 19004KT 6SM BR FEW030
     FM010900 VRB03KT 4SM BR BKN030
     FM011300 20007KT P6SM SCT030=



000
FTUS43 KLOT 312201 AAB
TAFORD
TAF AMD
KORD 312201Z 3122/0124 24006KT P6SM SCT040
     FM312300 10006KT P6SM SCT040
     FM010300 19004KT 6SM BR SCT030
     FM010900 VRB03KT 4SM BR BKN030
     FM011300 22009KT P6SM SCT030=



000
FTUS43 KLOT 312201 AAB
TAFRFD
TAF AMD
KRFD 312201Z 3122/0118 19006KT P6SM SCT040
     FM010300 19004KT 5SM BR SCT030
      TEMPO 0109/0112 2SM BR
     FM011400 22009KT P6SM SCT030=



000
FTUS43 KLOT 312201 AAB
TAFMDW
TAF AMD
KMDW 312201Z 3122/0118 24008KT P6SM SCT040
     FM010000 10006KT P6SM SCT040
     FM010300 19004KT 6SM BR FEW030
     FM010900 VRB03KT 4SM BR BKN030
     FM011300 22009KT P6SM SCT030=



000
FTUS43 KLOT 311954 AAA
TAFMDW
TAF AMD
KMDW 311954Z 3120/0118 10006KT P6SM SCT040
     FM010300 19004KT 6SM BR FEW030
     FM010900 VRB03KT 4SM BR BKN030
     FM011300 22009KT P6SM SCT030=



000
FTUS43 KLOT 311954 AAA
TAFORD
TAF AMD
KORD 311954Z 3120/0124 10006KT P6SM SCT040
     FM010300 19004KT 6SM BR SCT030
     FM010900 VRB03KT 4SM BR BKN030
     FM011300 22009KT P6SM SCT030=



000
FTUS43 KLOT 311954 AAA
TAFRFD
TAF AMD
KRFD 311954Z 3120/0118 19006KT P6SM SCT040
     FM010300 19004KT 5SM BR SCT030
      TEMPO 0109/0112 2SM BR
     FM011400 22009KT P6SM SCT030=



000
FTUS43 KLOT 311954 AAA
TAFGYY
TAF AMD
KGYY 311954Z 3120/0118 VRB04KT 5SM HZ SKC
     FM010300 19004KT 6SM BR FEW030
     FM010900 VRB03KT 4SM BR BKN030
     FM011300 20007KT P6SM SCT030=



000
FTUS43 KLOT 311954 AAA
TAFDPA
TAF AMD
KDPA 311954Z 3120/0118 19006KT P6SM SCT040
     FM010300 19004KT 6SM BR FEW030
     FM010900 VRB03KT 3SM BR BKN030
     FM011300 22009KT P6SM SCT030=



000
FTUS43 KLOT 311954 AAA
TAFGYY
TAF AMD
KGYY 311954Z 3120/0118 VRB04KT 5SM HZ SKC
     FM010300 19004KT 6SM BR FEW030
     FM010900 VRB03KT 4SM BR BKN030
     FM011300 20007KT P6SM SCT030=



000
FTUS43 KLOT 311954 AAA
TAFRFD
TAF AMD
KRFD 311954Z 3120/0118 19006KT P6SM SCT040
     FM010300 19004KT 5SM BR SCT030
      TEMPO 0109/0112 2SM BR
     FM011400 22009KT P6SM SCT030=



000
FTUS43 KLOT 311954 AAA
TAFDPA
TAF AMD
KDPA 311954Z 3120/0118 19006KT P6SM SCT040
     FM010300 19004KT 6SM BR FEW030
     FM010900 VRB03KT 3SM BR BKN030
     FM011300 22009KT P6SM SCT030=



000
FTUS43 KLOT 311954 AAA
TAFGYY
TAF AMD
KGYY 311954Z 3120/0118 VRB04KT 5SM HZ SKC
     FM010300 19004KT 6SM BR FEW030
     FM010900 VRB03KT 4SM BR BKN030
     FM011300 20007KT P6SM SCT030=



000
FTUS43 KLOT 311954 AAA
TAFORD
TAF AMD
KORD 311954Z 3120/0124 10006KT P6SM SCT040
     FM010300 19004KT 6SM BR SCT030
     FM010900 VRB03KT 4SM BR BKN030
     FM011300 22009KT P6SM SCT030=



000
FTUS43 KLOT 311954 AAA
TAFMDW
TAF AMD
KMDW 311954Z 3120/0118 10006KT P6SM SCT040
     FM010300 19004KT 6SM BR FEW030
     FM010900 VRB03KT 4SM BR BKN030
     FM011300 22009KT P6SM SCT030=



000
FTUS43 KLOT 311954 AAA
TAFGYY
TAF AMD
KGYY 311954Z 3120/0118 VRB04KT 5SM HZ SKC
     FM010300 19004KT 6SM BR FEW030
     FM010900 VRB03KT 4SM BR BKN030
     FM011300 20007KT P6SM SCT030=



000
FTUS43 KLOT 311722
TAFRFD
TAF
KRFD 311722Z 3118/0118 20005KT P6SM SKC
     FM010300 19004KT 5SM BR SCT030
      TEMPO 0109/0112 2SM BR
     FM011400 22009KT P6SM SCT030=



000
FTUS43 KLOT 311722
TAFDPA
TAF
KDPA 311722Z 3118/0118 20004KT P6SM SKC
     FM010300 19004KT 6SM BR FEW030
     FM010900 VRB03KT 3SM BR BKN030
     FM011300 22009KT P6SM SCT030=



000
FTUS43 KLOT 311722
TAFORD
TAF
KORD 311722Z 3118/0124 20004KT P6SM SKC
     FM312030 11006KT P6SM FEW030
     FM010300 19004KT 6SM BR SCT030
     FM010900 VRB03KT 4SM BR BKN030
     FM011300 22009KT P6SM SCT030=



000
FTUS43 KLOT 311722
TAFMDW
TAF
KMDW 311722Z 3118/0118 20004KT P6SM SKC
     FM312015 11006KT P6SM FEW030
     FM010300 19004KT 6SM BR FEW030
     FM010900 VRB03KT 4SM BR BKN030
     FM011300 22009KT P6SM SCT030=



000
FTUS43 KLOT 311722
TAFGYY
TAF
KGYY 311722Z 3118/0118 VRB04KT P6SM SKC
     FM312000 04008KT P6SM FEW030
     FM010300 19004KT 6SM BR FEW030
     FM010900 VRB03KT 4SM BR BKN030
     FM011300 20007KT P6SM SCT030=



000
FTUS43 KLOT 311722
TAFORD
TAF
KORD 311722Z 3118/0124 20004KT P6SM SKC
     FM312030 11006KT P6SM FEW030
     FM010300 19004KT 6SM BR SCT030
     FM010900 VRB03KT 4SM BR BKN030
     FM011300 22009KT P6SM SCT030=



000
FTUS43 KLOT 311722
TAFMDW
TAF
KMDW 311722Z 3118/0118 20004KT P6SM SKC
     FM312015 11006KT P6SM FEW030
     FM010300 19004KT 6SM BR FEW030
     FM010900 VRB03KT 4SM BR BKN030
     FM011300 22009KT P6SM SCT030=



000
FTUS43 KLOT 311722
TAFGYY
TAF
KGYY 311722Z 3118/0118 VRB04KT P6SM SKC
     FM312000 04008KT P6SM FEW030
     FM010300 19004KT 6SM BR FEW030
     FM010900 VRB03KT 4SM BR BKN030
     FM011300 20007KT P6SM SCT030=



000
FTUS43 KLOT 311722
TAFRFD
TAF
KRFD 311722Z 3118/0118 20005KT P6SM SKC
     FM010300 19004KT 5SM BR SCT030
      TEMPO 0109/0112 2SM BR
     FM011400 22009KT P6SM SCT030=



000
FTUS43 KLOT 311722
TAFDPA
TAF
KDPA 311722Z 3118/0118 20004KT P6SM SKC
     FM010300 19004KT 6SM BR FEW030
     FM010900 VRB03KT 3SM BR BKN030
     FM011300 22009KT P6SM SCT030=



000
FTUS43 KLOT 311559 AAB
TAFGYY
TAF AMD
KGYY 311559Z 3116/0112 VRB04KT P6SM SKC
     FM312000 04008KT P6SM FEW025
     FM010300 19004KT 6SM BR FEW050=



000
FTUS43 KLOT 311559 AAB
TAFORD
TAF AMD
KORD 311559Z 3116/0118 20004KT P6SM SKC
     FM312100 11006KT P6SM FEW025
     FM010300 19004KT 6SM BR FEW050
     FM011400 22009KT P6SM SCT050=



000
FTUS43 KLOT 311559 AAB
TAFDPA
TAF AMD
KDPA 311559Z 3116/0112 20004KT P6SM SKC
     FM010300 19004KT 5SM BR FEW050=



000
FTUS43 KLOT 311559 AAB
TAFRFD
TAF AMD
KRFD 311559Z 3116/0112 20005KT P6SM SKC
     FM010300 19004KT 5SM BR FEW050=



000
FTUS43 KLOT 311559 AAB
TAFGYY
TAF AMD
KGYY 311559Z 3116/0112 VRB04KT P6SM SKC
     FM312000 04008KT P6SM FEW025
     FM010300 19004KT 6SM BR FEW050=



000
FTUS43 KLOT 311559 AAB
TAFMDW
TAF AMD
KMDW 311559Z 3116/0112 20004KT P6SM SKC
     FM312100 11006KT P6SM FEW025
     FM010300 19004KT 6SM BR FEW050=



000
FTUS43 KLOT 311333 AAA
TAFORD
TAF AMD
KORD 311333Z 3114/0118 00000KT 3SM BR SCT025
     FM311500 20003KT P6SM SKC
     FM312100 11006KT P6SM FEW050
     FM010300 19004KT 6SM BR FEW050
     FM011400 22009KT P6SM SCT050=



000
FTUS43 KLOT 311333 AAA
TAFMDW
TAF AMD
KMDW 311333Z 3114/0112 00000KT 3SM BR SCT025
     FM311500 20003KT P6SM SKC
     FM312100 11006KT P6SM FEW050
     FM010300 19004KT 6SM BR FEW050=



000
FTUS43 KLOT 311333 AAA
TAFRFD
TAF AMD
KRFD 311333Z 3114/0112 00000KT 4SM BR SCT025
     FM311500 20003KT P6SM SKC
     FM311800 19005KT P6SM FEW050
     FM010300 19004KT 5SM BR FEW050=



000
FTUS43 KLOT 311333 AAA
TAFGYY
TAF AMD
KGYY 311333Z 3114/0112 00000KT 3SM BR SCT020
      TEMPO 3114/3116 2SM BR BKN010
     FM311600 VRB03KT P6SM SKC
     FM311900 08006KT P6SM FEW050
     FM010300 19004KT 6SM BR FEW050=



000
FTUS43 KLOT 311333 AAA
TAFORD
TAF AMD
KORD 311333Z 3114/0118 00000KT 3SM BR SCT025
     FM311500 20003KT P6SM SKC
     FM312100 11006KT P6SM FEW050
     FM010300 19004KT 6SM BR FEW050
     FM011400 22009KT P6SM SCT050=



000
FTUS43 KLOT 311333 AAA
TAFGYY
TAF AMD
KGYY 311333Z 3114/0112 00000KT 3SM BR SCT020
      TEMPO 3114/3116 2SM BR BKN010
     FM311600 VRB03KT P6SM SKC
     FM311900 08006KT P6SM FEW050
     FM010300 19004KT 6SM BR FEW050=



000
FTUS43 KLOT 311333 AAA
TAFMDW
TAF AMD
KMDW 311333Z 3114/0112 00000KT 3SM BR SCT025
     FM311500 20003KT P6SM SKC
     FM312100 11006KT P6SM FEW050
     FM010300 19004KT 6SM BR FEW050=



000
FTUS43 KLOT 311333 AAA
TAFDPA
TAF AMD
KDPA 311333Z 3114/0112 00000KT 5SM BR SCT010
     FM311500 VRB03KT P6SM SKC
     FM311800 19005KT P6SM FEW050
     FM010300 19004KT 5SM BR FEW050=



000
FTUS43 KLOT 311333 AAA
TAFRFD
TAF AMD
KRFD 311333Z 3114/0112 00000KT 4SM BR SCT025
     FM311500 20003KT P6SM SKC
     FM311800 19005KT P6SM FEW050
     FM010300 19004KT 5SM BR FEW050=



000
FTUS43 KLOT 311333 AAA
TAFGYY
TAF AMD
KGYY 311333Z 3114/0112 00000KT 3SM BR SCT020
      TEMPO 3114/3116 2SM BR BKN010
     FM311600 VRB03KT P6SM SKC
     FM311900 08006KT P6SM FEW050
     FM010300 19004KT 6SM BR FEW050=



000
FTUS43 KLOT 311333 AAA
TAFGYY
TAF AMD
KGYY 311333Z 3114/0112 00000KT 3SM BR SCT020
      TEMPO 3114/3116 2SM BR BKN010
     FM311600 VRB03KT P6SM SKC
     FM311900 08006KT P6SM FEW050
     FM010300 19004KT 6SM BR FEW050=



000
FTUS43 KLOT 311333 AAA
TAFDPA
TAF AMD
KDPA 311333Z 3114/0112 00000KT 5SM BR SCT010
     FM311500 VRB03KT P6SM SKC
     FM311800 19005KT P6SM FEW050
     FM010300 19004KT 5SM BR FEW050=



000
FTUS43 KLOT 311128
TAFRFD
TAF
KRFD 311128Z 3112/0112 00000KT 2SM BR SCT002
      TEMPO 3112/3114 1SM BR VV002
     FM311500 20003KT P6SM SKC
     FM311800 19005KT P6SM FEW050
     FM010300 19004KT 5SM BR FEW050=



000
FTUS43 KLOT 311128
TAFDPA
TAF
KDPA 311128Z 3112/0112 00000KT 1SM BR SCT002
      TEMPO 3112/3114 1/4SM FG VV002
     FM311500 VRB03KT P6SM SKC
     FM311800 19005KT P6SM FEW050
     FM010300 19004KT 5SM BR FEW050=



000
FTUS43 KLOT 311128
TAFGYY
TAF
KGYY 311128Z 3112/0112 00000KT 3SM BR SCT020
      TEMPO 3112/3114 1SM BR BKN020
     FM311500 VRB03KT P6SM SKC
     FM311900 08006KT P6SM FEW050
     FM010300 19004KT 6SM BR FEW050=



000
FTUS43 KLOT 311128
TAFGYY
TAF
KGYY 311128Z 3112/0112 00000KT 3SM BR SCT020
      TEMPO 3112/3114 1SM BR BKN020
     FM311500 VRB03KT P6SM SKC
     FM311900 08006KT P6SM FEW050
     FM010300 19004KT 6SM BR FEW050=



000
FTUS43 KLOT 311128
TAFDPA
TAF
KDPA 311128Z 3112/0112 00000KT 1SM BR SCT002
      TEMPO 3112/3114 1/4SM FG VV002
     FM311500 VRB03KT P6SM SKC
     FM311800 19005KT P6SM FEW050
     FM010300 19004KT 5SM BR FEW050=



000
FTUS43 KLOT 311128
TAFORD
TAF
KORD 311128Z 3112/0118 00000KT 1SM BR SCT002
      TEMPO 3112/3114 1/4SM FG
     FM311500 20003KT P6SM SKC
     FM312100 11006KT P6SM FEW050
     FM010300 19004KT 6SM BR FEW050
     FM011400 22009KT P6SM SCT050=



000
FTUS43 KLOT 311128
TAFMDW
TAF
KMDW 311128Z 3112/0112 00000KT 2SM BR SCT002
      TEMPO 3112/3114 1SM BR
     FM311500 20003KT P6SM SKC
     FM312100 11006KT P6SM FEW050
     FM010300 19004KT 6SM BR FEW050=



000
FTUS43 KLOT 311128
TAFGYY
TAF
KGYY 311128Z 3112/0112 00000KT 3SM BR SCT020
      TEMPO 3112/3114 1SM BR BKN020
     FM311500 VRB03KT P6SM SKC
     FM311900 08006KT P6SM FEW050
     FM010300 19004KT 6SM BR FEW050=



000
FTUS43 KLOT 311128
TAFGYY
TAF
KGYY 311128Z 3112/0112 00000KT 3SM BR SCT020
      TEMPO 3112/3114 1SM BR BKN020
     FM311500 VRB03KT P6SM SKC
     FM311900 08006KT P6SM FEW050
     FM010300 19004KT 6SM BR FEW050=



000
FTUS43 KLOT 311128
TAFMDW
TAF
KMDW 311128Z 3112/0112 00000KT 2SM BR SCT002
      TEMPO 3112/3114 1SM BR
     FM311500 20003KT P6SM SKC
     FM312100 11006KT P6SM FEW050
     FM010300 19004KT 6SM BR FEW050=



000
FTUS43 KLOT 311128
TAFORD
TAF
KORD 311128Z 3112/0118 00000KT 1SM BR SCT002
      TEMPO 3112/3114 1/4SM FG
     FM311500 20003KT P6SM SKC
     FM312100 11006KT P6SM FEW050
     FM010300 19004KT 6SM BR FEW050
     FM011400 22009KT P6SM SCT050=



000
FTUS43 KLOT 311009 AAB
TAFORD
TAF AMD
KORD 311009Z 3110/0112 00000KT 1SM BR SCT006
      TEMPO 3110/3113 1/2SM FG BKN006
     FM311300 20003KT P6SM SKC
     FM312100 11006KT P6SM FEW050
     FM010200 19004KT P6SM FEW050=



000
FTUS43 KLOT 311009 AAB
TAFORD
TAF AMD
KORD 311009Z 3110/0112 00000KT 1SM BR SCT006
      TEMPO 3110/3113 1/2SM FG BKN006
     FM311300 20003KT P6SM SKC
     FM312100 11006KT P6SM FEW050
     FM010200 19004KT P6SM FEW050=



000
FTUS43 KLOT 310904 AAA
TAFRFD
TAF AMD
KRFD 310904Z 3109/0106 00000KT 3/4SM BR SKC
      TEMPO 3109/3112 1/2SM FG VV003
     FM311300 VRB03KT P6SM SKC
     FM311800 19005KT P6SM SKC
     FM010200 19004KT P6SM FEW050=



000
FTUS43 KLOT 310904 AAB
TAFDPA
TAF AMD
KDPA 310904Z 3109/0106 00000KT 1/4SM FG VV002
     FM311300 VRB03KT P6SM SKC
     FM311800 19005KT P6SM SKC
     FM010200 19004KT P6SM FEW050=



000
FTUS43 KLOT 310904 AAB
TAFGYY
TAF AMD
KGYY 310904Z 3109/0106 00000KT 1/4SM FG VV002
     FM311300 VRB03KT P6SM SKC
     FM311900 08006KT P6SM FEW050
     FM010200 19004KT P6SM FEW050=



000
FTUS43 KLOT 310904 AAA
TAFORD
TAF AMD
KORD 310904Z 3109/0112 00000KT 1SM BR SCT007
      TEMPO 3110/3113 BKN007
     FM311300 20003KT P6SM SKC
     FM312100 11006KT P6SM FEW050
     FM010200 19004KT P6SM FEW050=



000
FTUS43 KLOT 310904 AAB
TAFGYY
TAF AMD
KGYY 310904Z 3109/0106 00000KT 1/4SM FG VV002
     FM311300 VRB03KT P6SM SKC
     FM311900 08006KT P6SM FEW050
     FM010200 19004KT P6SM FEW050=



000
FTUS43 KLOT 310904 AAA
TAFMDW
TAF AMD
KMDW 310904Z 3109/0106 00000KT 1SM BR SCT007
      TEMPO 3110/3113 BKN007
     FM311300 20003KT P6SM SKC
     FM312100 11006KT P6SM FEW050
     FM010200 19004KT P6SM FEW050=



000
FTUS43 KLOT 310904 AAA
TAFRFD
TAF AMD
KRFD 310904Z 3109/0106 00000KT 3/4SM BR SKC
      TEMPO 3109/3112 1/2SM FG VV003
     FM311300 VRB03KT P6SM SKC
     FM311800 19005KT P6SM SKC
     FM010200 19004KT P6SM FEW050=



000
FTUS43 KLOT 310904 AAA
TAFORD
TAF AMD
KORD 310904Z 3109/0112 00000KT 1SM BR SCT007
      TEMPO 3110/3113 BKN007
     FM311300 20003KT P6SM SKC
     FM312100 11006KT P6SM FEW050
     FM010200 19004KT P6SM FEW050=



000
FTUS43 KLOT 310904 AAB
TAFDPA
TAF AMD
KDPA 310904Z 3109/0106 00000KT 1/4SM FG VV002
     FM311300 VRB03KT P6SM SKC
     FM311800 19005KT P6SM SKC
     FM010200 19004KT P6SM FEW050=



000
FTUS43 KLOT 310904 AAB
TAFGYY
TAF AMD
KGYY 310904Z 3109/0106 00000KT 1/4SM FG VV002
     FM311300 VRB03KT P6SM SKC
     FM311900 08006KT P6SM FEW050
     FM010200 19004KT P6SM FEW050=



000
FTUS43 KLOT 310904 AAA
TAFMDW
TAF AMD
KMDW 310904Z 3109/0106 00000KT 1SM BR SCT007
      TEMPO 3110/3113 BKN007
     FM311300 20003KT P6SM SKC
     FM312100 11006KT P6SM FEW050
     FM010200 19004KT P6SM FEW050=



000
FTUS43 KLOT 310708 AAA
TAFDPA
TAF AMD
KDPA 310708Z 3107/0106 00000KT 2SM BR SKC
      TEMPO 3107/3111 1/2SM FG VV002
     FM311300 VRB03KT P6SM SKC
     FM311800 19005KT P6SM SKC
     FM010200 19004KT P6SM FEW050=



000
FTUS43 KLOT 310641 AAA
TAFGYY
TAF AMD
KGYY 310641Z 3107/0106 00000KT 1/4SM FG SKC
      TEMPO 3107/3111 VV003
     FM311300 VRB03KT P6SM SKC
     FM311900 08006KT P6SM FEW050
     FM010200 19004KT P6SM FEW050=



000
FTUS43 KLOT 310641 AAA
TAFGYY
TAF AMD
KGYY 310641Z 3107/0106 00000KT 1/4SM FG SKC
      TEMPO 3107/3111 VV003
     FM311300 VRB03KT P6SM SKC
     FM311900 08006KT P6SM FEW050
     FM010200 19004KT P6SM FEW050=



000
FTUS43 KLOT 310541 CCA
TAFGYY
TAF COR
KGYY 310541Z 3106/0106 00000KT 1/2SM FG SKC
      TEMPO 3106/3110 VV004
     FM311300 VRB03KT P6SM SKC
     FM311900 08006KT P6SM FEW050
     FM010200 19004KT P6SM FEW050=



000
FTUS43 KLOT 310541 CCA
TAFGYY
TAF COR
KGYY 310541Z 3106/0106 00000KT 1/2SM FG SKC
      TEMPO 3106/3110 VV004
     FM311300 VRB03KT P6SM SKC
     FM311900 08006KT P6SM FEW050
     FM010200 19004KT P6SM FEW050=



000
FTUS43 KLOT 310540
TAFGYY
TAF
KGYY 310540Z 3106/0106 00000KT 1/2SM FG SKC
     FM311300 VRB03KT P6SM SKC
     FM311900 08006KT P6SM FEW050
     FM010200 19004KT P6SM FEW050=



000
FTUS43 KLOT 310540
TAFGYY
TAF
KGYY 310540Z 3106/0106 00000KT 1/2SM FG SKC
     FM311300 VRB03KT P6SM SKC
     FM311900 08006KT P6SM FEW050
     FM010200 19004KT P6SM FEW050=



000
FTUS43 KLOT 310540
TAFDPA
TAF
KDPA 310540Z 3106/0106 00000KT 3SM BR SKC
      TEMPO 3106/3110 3/4SM BR
     FM311300 VRB03KT P6SM SKC
     FM311800 19005KT P6SM SKC
     FM010200 19004KT P6SM FEW050=



000
FTUS43 KLOT 310540
TAFORD
TAF
KORD 310540Z 3106/0112 00000KT 3SM BR SKC
     FM310900 00000KT 1SM BR SKC
     FM311300 20003KT P6SM SKC
     FM312100 11006KT P6SM FEW050
     FM010200 19004KT P6SM FEW050=



000
FTUS43 KLOT 310540
TAFMDW
TAF
KMDW 310540Z 3106/0106 00000KT 3SM BR SKC
     FM310900 00000KT 1SM BR SKC
     FM311300 20003KT P6SM SKC
     FM312100 11006KT P6SM FEW050
     FM010200 19004KT P6SM FEW050=



000
FTUS43 KLOT 310540
TAFGYY
TAF
KGYY 310540Z 3106/0106 00000KT 1/2SM FG SKC
     FM311300 VRB03KT P6SM SKC
     FM311900 08006KT P6SM FEW050
     FM010200 19004KT P6SM FEW050=



000
FTUS43 KLOT 310540
TAFRFD
TAF
KRFD 310540Z 3106/0106 00000KT 5SM BR SKC
     FM310900 00000KT 1SM BR SKC
     FM311300 VRB03KT P6SM SKC
     FM311800 19005KT P6SM SKC
     FM010200 19004KT P6SM FEW050=



000
FTUS43 KLOT 310411 AAB
TAFGYY
TAF AMD
KGYY 310411Z 3104/3124 VRB03KT 3SM BR SKC
      TEMPO 3104/3107 1SM BR
     FM311100 00000KT 2SM BR SKC
     FM311300 20004KT P6SM SKC=



000
FTUS43 KLOT 310254 AAA
TAFMDW
TAF AMD
KMDW 310254Z 3103/3124 12005KT P6SM SKC
     FM310700 14003KT 4SM BR SKC
     FM311100 00000KT 2SM BR SKC
     FM311300 20004KT P6SM SKC=



000
FTUS43 KLOT 310254 AAA
TAFGYY
TAF AMD
KGYY 310254Z 3103/3124 VRB03KT P6SM SKC
     FM310700 VRB03KT 4SM BR SKC
     FM311100 00000KT 2SM BR SKC
     FM311300 20004KT P6SM SKC=



000
FTUS43 KLOT 310254 AAA
TAFRFD
TAF AMD
KRFD 310254Z 3103/3124 VRB03KT P6SM SKC
     FM310700 00000KT 3SM BR SKC
     FM311000 00000KT 1 1/2SM BR SKC
     FM311300 20004KT P6SM SKC=



000
FTUS43 KLOT 310254 AAA
TAFGYY
TAF AMD
KGYY 310254Z 3103/3124 VRB03KT P6SM SKC
     FM310700 VRB03KT 4SM BR SKC
     FM311100 00000KT 2SM BR SKC
     FM311300 20004KT P6SM SKC=



000
FTUS43 KLOT 310254 AAA
TAFDPA
TAF AMD
KDPA 310254Z 3103/3124 VRB03KT P6SM SKC
     FM310700 VRB03KT 3SM BR SKC
     FM311000 00000KT 1 1/2SM BR SKC
     FM311300 20004KT P6SM SKC=



000
FTUS43 KLOT 310254 AAA
TAFORD
TAF AMD
KORD 310254Z 3103/0106 12005KT P6SM SKC
     FM310700 VRB03KT 4SM BR SKC
     FM311100 00000KT 2SM BR SKC
     FM311300 20004KT P6SM SKC
     FM312100 09006KT P6SM FEW045
     FM010100 VRB03KT P6SM FEW250=



000
FTUS43 KLOT 302320
TAFRFD
TAF
KRFD 302320Z 3100/3124 VRB03KT P6SM FEW250
     FM310700 00000KT 3SM BR SKC
     FM311000 00000KT 1 1/2SM BR SKC
     FM311300 20004KT P6SM SKC=



000
FTUS43 KLOT 302320
TAFORD
TAF
KORD 302320Z 3100/0106 10005KT P6SM FEW035
     FM310700 VRB03KT 4SM BR SKC
     FM311100 00000KT 2SM BR SKC
     FM311300 20004KT P6SM SKC
     FM312100 09006KT P6SM FEW045
     FM010100 VRB03KT P6SM FEW250=



000
FTUS43 KLOT 302320
TAFMDW
TAF
KMDW 302320Z 3100/3124 10006KT P6SM FEW035
     FM310700 14003KT 4SM BR SKC
     FM311100 00000KT 2SM BR SKC
     FM311300 20004KT P6SM SKC=



000
FTUS43 KLOT 302320
TAFGYY
TAF
KGYY 302320Z 3100/3124 VRB05KT P6SM FEW035
     FM310700 VRB03KT 4SM BR SKC
     FM311100 00000KT 2SM BR SKC
     FM311300 20004KT P6SM SKC=



000
FTUS43 KLOT 302320
TAFGYY
TAF
KGYY 302320Z 3100/3124 VRB05KT P6SM FEW035
     FM310700 VRB03KT 4SM BR SKC
     FM311100 00000KT 2SM BR SKC
     FM311300 20004KT P6SM SKC=



000
FTUS43 KLOT 302320
TAFORD
TAF
KORD 302320Z 3100/0106 10005KT P6SM FEW035
     FM310700 VRB03KT 4SM BR SKC
     FM311100 00000KT 2SM BR SKC
     FM311300 20004KT P6SM SKC
     FM312100 09006KT P6SM FEW045
     FM010100 VRB03KT P6SM FEW250=



000
FTUS43 KLOT 302320
TAFMDW
TAF
KMDW 302320Z 3100/3124 10006KT P6SM FEW035
     FM310700 14003KT 4SM BR SKC
     FM311100 00000KT 2SM BR SKC
     FM311300 20004KT P6SM SKC=



000
FTUS43 KLOT 302320
TAFDPA
TAF
KDPA 302320Z 3100/3124 VRB03KT P6SM FEW030
     FM310700 VRB03KT 3SM BR SKC
     FM311000 00000KT 1 1/2SM BR SKC
     FM311300 20004KT P6SM SKC=



000
FTUS43 KLOT 302320
TAFRFD
TAF
KRFD 302320Z 3100/3124 VRB03KT P6SM FEW250
     FM310700 00000KT 3SM BR SKC
     FM311000 00000KT 1 1/2SM BR SKC
     FM311300 20004KT P6SM SKC=



000
FTUS43 KLOT 302320
TAFGYY
TAF
KGYY 302320Z 3100/3124 VRB05KT P6SM FEW035
     FM310700 VRB03KT 4SM BR SKC
     FM311100 00000KT 2SM BR SKC
     FM311300 20004KT P6SM SKC=



000
FTUS43 KLOT 302320
TAFDPA
TAF
KDPA 302320Z 3100/3124 VRB03KT P6SM FEW030
     FM310700 VRB03KT 3SM BR SKC
     FM311000 00000KT 1 1/2SM BR SKC
     FM311300 20004KT P6SM SKC=



000
FTUS43 KLOT 302320
TAFGYY
TAF
KGYY 302320Z 3100/3124 VRB05KT P6SM FEW035
     FM310700 VRB03KT 4SM BR SKC
     FM311100 00000KT 2SM BR SKC
     FM311300 20004KT P6SM SKC=



000
FTUS43 KLOT 302200 AAC
TAFORD
TAF AMD
KORD 302200Z 3022/3124 08007KT P6SM SCT035
     FM310300 VRB03KT 4SM BR SKC
      TEMPO 3110/3113 00000KT 1 1/2SM BR
     FM311300 20004KT P6SM SKC=



000
FTUS43 KLOT 302200 AAB
TAFGYY
TAF AMD
KGYY 302200Z 3022/3118 03007KT P6SM SCT035
     FM310300 VRB03KT 4SM BR SKC
      TEMPO 3110/3113 00000KT 1 1/2SM BR
     FM311300 20004KT P6SM SKC=



000
FTUS43 KLOT 302200 AAB
TAFMDW
TAF AMD
KMDW 302200Z 3022/3118 09006KT P6SM SCT035
     FM310300 14003KT 4SM BR SKC
      TEMPO 3110/3113 00000KT 1 1/2SM BR
     FM311300 20004KT P6SM SKC=



000
FTUS43 KLOT 302200 AAB
TAFGYY
TAF AMD
KGYY 302200Z 3022/3118 03007KT P6SM SCT035
     FM310300 VRB03KT 4SM BR SKC
      TEMPO 3110/3113 00000KT 1 1/2SM BR
     FM311300 20004KT P6SM SKC=



000
FTUS43 KLOT 302200 AAB
TAFMDW
TAF AMD
KMDW 302200Z 3022/3118 09006KT P6SM SCT035
     FM310300 14003KT 4SM BR SKC
      TEMPO 3110/3113 00000KT 1 1/2SM BR
     FM311300 20004KT P6SM SKC=



000
FTUS43 KLOT 302200 AAB
TAFGYY
TAF AMD
KGYY 302200Z 3022/3118 03007KT P6SM SCT035
     FM310300 VRB03KT 4SM BR SKC
      TEMPO 3110/3113 00000KT 1 1/2SM BR
     FM311300 20004KT P6SM SKC=



000
FTUS43 KLOT 302200 AAB
TAFGYY
TAF AMD
KGYY 302200Z 3022/3118 03007KT P6SM SCT035
     FM310300 VRB03KT 4SM BR SKC
      TEMPO 3110/3113 00000KT 1 1/2SM BR
     FM311300 20004KT P6SM SKC=



000
FTUS43 KLOT 302200 AAB
TAFDPA
TAF AMD
KDPA 302200Z 3022/3118 VRB03KT P6SM SCT030
     FM310300 VRB03KT 3SM BR SKC
      TEMPO 3110/3113 00000KT 1 1/2SM BR
     FM311300 20004KT P6SM SKC=



000
FTUS43 KLOT 302200 AAC
TAFORD
TAF AMD
KORD 302200Z 3022/3124 08007KT P6SM SCT035
     FM310300 VRB03KT 4SM BR SKC
      TEMPO 3110/3113 00000KT 1 1/2SM BR
     FM311300 20004KT P6SM SKC=



000
FTUS43 KLOT 302200 AAB
TAFRFD
TAF AMD
KRFD 302200Z 3022/3118 VRB03KT P6SM SCT025
     FM310300 00000KT 3SM BR SKC
      TEMPO 3110/3113 00000KT 1 1/2SM BR
     FM311300 20004KT P6SM SKC=



000
FTUS43 KLOT 302200 AAB
TAFRFD
TAF AMD
KRFD 302200Z 3022/3118 VRB03KT P6SM SCT025
     FM310300 00000KT 3SM BR SKC
      TEMPO 3110/3113 00000KT 1 1/2SM BR
     FM311300 20004KT P6SM SKC=



000
FTUS43 KLOT 302200 AAB
TAFDPA
TAF AMD
KDPA 302200Z 3022/3118 VRB03KT P6SM SCT030
     FM310300 VRB03KT 3SM BR SKC
      TEMPO 3110/3113 00000KT 1 1/2SM BR
     FM311300 20004KT P6SM SKC=



000
FTUS43 KLOT 302020 AAB
TAFORD
TAF AMD
KORD 302020Z 3020/3124 24004KT P6SM BKN030
     FM302130 08007KT P6SM SCT025
     FM310300 VRB03KT 4SM BR SKC
      TEMPO 3110/3113 00000KT 1 1/2SM BR
     FM311300 20004KT P6SM SKC=



000
FTUS43 KLOT 302009 AAA
TAFGYY
TAF AMD
KGYY 302009Z 3020/3118 02005KT P6SM SCT008 BKN030
     FM302200 03007KT P6SM SCT025
     FM310300 VRB03KT 4SM BR SKC
      TEMPO 3110/3113 00000KT 1 1/2SM BR
     FM311300 20004KT P6SM SKC=



000
FTUS43 KLOT 302009 AAA
TAFDPA
TAF AMD
KDPA 302009Z 3020/3118 30004KT P6SM SCT012 BKN025
     FM302200 VRB03KT P6SM SCT025
     FM310300 VRB03KT 3SM BR SKC
      TEMPO 3110/3113 00000KT 1 1/2SM BR
     FM311300 20004KT P6SM SKC=



000
FTUS43 KLOT 302009 AAA
TAFRFD
TAF AMD
KRFD 302009Z 3020/3118 VRB03KT P6SM SCT015 BKN025
     FM302100 VRB03KT P6SM SCT025
     FM310300 00000KT 3SM BR SKC
      TEMPO 3110/3113 00000KT 1 1/2SM BR
     FM311300 20004KT P6SM SKC=



000
FTUS43 KLOT 302009 AAA
TAFDPA
TAF AMD
KDPA 302009Z 3020/3118 30004KT P6SM SCT012 BKN025
     FM302200 VRB03KT P6SM SCT025
     FM310300 VRB03KT 3SM BR SKC
      TEMPO 3110/3113 00000KT 1 1/2SM BR
     FM311300 20004KT P6SM SKC=



000
FTUS43 KLOT 302009 AAA
TAFGYY
TAF AMD
KGYY 302009Z 3020/3118 02005KT P6SM SCT008 BKN030
     FM302200 03007KT P6SM SCT025
     FM310300 VRB03KT 4SM BR SKC
      TEMPO 3110/3113 00000KT 1 1/2SM BR
     FM311300 20004KT P6SM SKC=



000
FTUS43 KLOT 302009 AAA
TAFMDW
TAF AMD
KMDW 302009Z 3020/3118 04004KT P6SM SCT015 BKN030
     FM302200 09006KT P6SM SCT025
     FM310300 14003KT 4SM BR SKC
      TEMPO 3110/3113 00000KT 1 1/2SM BR
     FM311300 20004KT P6SM SKC=



000
FTUS43 KLOT 302009 AAA
TAFRFD
TAF AMD
KRFD 302009Z 3020/3118 VRB03KT P6SM SCT015 BKN025
     FM302100 VRB03KT P6SM SCT025
     FM310300 00000KT 3SM BR SKC
      TEMPO 3110/3113 00000KT 1 1/2SM BR
     FM311300 20004KT P6SM SKC=



000
FTUS43 KLOT 302009 AAA
TAFGYY
TAF AMD
KGYY 302009Z 3020/3118 02005KT P6SM SCT008 BKN030
     FM302200 03007KT P6SM SCT025
     FM310300 VRB03KT 4SM BR SKC
      TEMPO 3110/3113 00000KT 1 1/2SM BR
     FM311300 20004KT P6SM SKC=



000
FTUS43 KLOT 302009 AAA
TAFORD
TAF AMD
KORD 302009Z 3020/3124 05005KT P6SM SCT010 BKN025
     FM302200 09006KT P6SM SCT025
     FM310300 VRB03KT 4SM BR SKC
      TEMPO 3110/3113 00000KT 1 1/2SM BR
     FM311300 20004KT P6SM SKC=



000
FTUS43 KLOT 301722
TAFGYY
TAF
KGYY 301722Z 3018/3118 02005KT P6SM SCT008 BKN015
     FM302100 03007KT P6SM SCT025
     FM310300 VRB03KT 4SM BR SKC
      TEMPO 3110/3113 00000KT 1 1/2SM BR
     FM311300 20004KT P6SM SKC=



000
FTUS43 KLOT 301722
TAFMDW
TAF
KMDW 301722Z 3018/3118 04004KT P6SM SCT015 OVC030
     FM302100 09006KT P6SM SCT025
     FM310300 14003KT 4SM BR SKC
      TEMPO 3110/3113 00000KT 1 1/2SM BR
     FM311300 20004KT P6SM SKC=



000
FTUS43 KLOT 301722
TAFGYY
TAF
KGYY 301722Z 3018/3118 02005KT P6SM SCT008 BKN015
     FM302100 03007KT P6SM SCT025
     FM310300 VRB03KT 4SM BR SKC
      TEMPO 3110/3113 00000KT 1 1/2SM BR
     FM311300 20004KT P6SM SKC=



000
FTUS43 KLOT 301722
TAFRFD
TAF
KRFD 301722Z 3018/3118 VRB03KT P6SM SCT015 BKN025
     FM302100 VRB03KT P6SM SCT025
     FM310300 00000KT 3SM BR SKC
      TEMPO 3110/3113 00000KT 1 1/2SM BR
     FM311300 20004KT P6SM SKC=



000
FTUS43 KLOT 301722
TAFDPA
TAF
KDPA 301722Z 3018/3118 03004KT P6SM SCT012 BKN025
     FM302100 VRB03KT P6SM SCT025
     FM310300 VRB03KT 3SM BR SKC
      TEMPO 3110/3113 00000KT 1 1/2SM BR
     FM311300 20004KT P6SM SKC=



000
FTUS43 KLOT 301722
TAFORD
TAF
KORD 301722Z 3018/3124 05005KT P6SM SCT010 BKN025
     FM302100 09006KT P6SM SCT025
     FM310300 VRB03KT 4SM BR SKC
      TEMPO 3110/3113 00000KT 1 1/2SM BR
     FM311300 20004KT P6SM SKC=



000
FTUS43 KLOT 301601 AAB
TAFDPA
TAF AMD
KDPA 301601Z 3016/3112 03004KT P6SM SCT012 BKN025
     FM302000 VRB03KT P6SM SCT025
     FM310300 00000KT 3SM BR SKC=



000
FTUS43 KLOT 301601 AAB
TAFRFD
TAF AMD
KRFD 301601Z 3016/3112 VRB03KT P6SM SCT010 BKN025
     FM302000 VRB03KT P6SM SCT025
     FM310300 00000KT 3SM BR SKC=



000
FTUS43 KLOT 301601 AAB
TAFORD
TAF AMD
KORD 301601Z 3016/3118 04004KT P6SM FEW010 OVC025
     FM301700 05005KT P6SM SCT010 BKN035
     FM302000 09006KT P6SM SCT025
     FM310500 00000KT 4SM BR SKC
     FM311300 20004KT P6SM SKC=



000
FTUS43 KLOT 301601 AAC
TAFGYY
TAF AMD
KGYY 301601Z 3016/3112 01004KT 6SM HZ OVC008
     FM301800 02005KT P6SM SCT008 BKN015
     FM302000 03007KT P6SM SCT025
     FM310300 00000KT 4SM BR SKC=



000
FTUS43 KLOT 301601 AAC
TAFGYY
TAF AMD
KGYY 301601Z 3016/3112 01004KT 6SM HZ OVC008
     FM301800 02005KT P6SM SCT008 BKN015
     FM302000 03007KT P6SM SCT025
     FM310300 00000KT 4SM BR SKC=



000
FTUS43 KLOT 301601 AAB
TAFMDW
TAF AMD
KMDW 301601Z 3016/3112 04004KT P6SM SCT015 OVC035
     FM302000 09006KT P6SM SCT025
     FM310500 00000KT 4SM BR SKC=



000
FTUS43 KLOT 301501 AAB
TAFGYY
TAF AMD
KGYY 301501Z 3015/3112 00000KT 5SM BR OVC006
     FM301600 01004KT 6SM HZ SCT006 BKN008
     FM302000 03007KT P6SM SCT025
     FM310300 00000KT 4SM BR SKC=



000
FTUS43 KLOT 301501 AAB
TAFGYY
TAF AMD
KGYY 301501Z 3015/3112 00000KT 5SM BR OVC006
     FM301600 01004KT 6SM HZ SCT006 BKN008
     FM302000 03007KT P6SM SCT025
     FM310300 00000KT 4SM BR SKC=



000
FTUS43 KLOT 301501 AAB
TAFGYY
TAF AMD
KGYY 301501Z 3015/3112 00000KT 5SM BR OVC006
     FM301600 01004KT 6SM HZ SCT006 BKN008
     FM302000 03007KT P6SM SCT025
     FM310300 00000KT 4SM BR SKC=



000
FTUS43 KLOT 301355 AAA
TAFDPA
TAF AMD
KDPA 301355Z 3014/3112 VRB03KT 4SM BR BKN007 OVC025
     FM301600 VRB03KT 5SM HZ SCT008 BKN025
     FM302000 VRB03KT P6SM SCT025
     FM310300 00000KT 3SM BR SKC=



000
FTUS43 KLOT 301355 AAA
TAFORD
TAF AMD
KORD 301355Z 3014/3118 03003KT 4SM BR BKN008 OVC015
     FM301600 04004KT 5SM HZ SCT008 BKN025
     FM302000 09006KT P6SM SCT025
     FM310500 00000KT 4SM BR SKC
     FM311300 20004KT P6SM SKC=



000
FTUS43 KLOT 301355 AAA
TAFRFD
TAF AMD
KRFD 301355Z 3014/3112 VRB03KT 5SM BR SCT007 OVC025
     FM301500 VRB03KT P6SM SCT015 BKN025
     FM301800 VRB03KT P6SM SCT025=



000
FTUS43 KLOT 301355 AAA
TAFMDW
TAF AMD
KMDW 301355Z 3014/3112 08003KT 4SM BR BKN008 OVC015
     FM301600 05004KT 5SM HZ SCT008 BKN025
     FM302000 09006KT P6SM SCT025
     FM310500 00000KT 4SM BR SKC=



000
FTUS43 KLOT 301355 AAA
TAFGYY
TAF AMD
KGYY 301355Z 3014/3112 00000KT 2SM BR OVC002
     FM301600 01004KT 4SM HZ SCT005 BKN009
     FM302000 03007KT P6SM SCT025
     FM310300 00000KT 4SM BR SKC=



000
FTUS43 KLOT 301355 AAA
TAFGYY
TAF AMD
KGYY 301355Z 3014/3112 00000KT 2SM BR OVC002
     FM301600 01004KT 4SM HZ SCT005 BKN009
     FM302000 03007KT P6SM SCT025
     FM310300 00000KT 4SM BR SKC=



000
FTUS43 KLOT 301134
TAFORD
TAF
KORD 301134Z 3012/3118 02004KT 4SM BR OVC006
     FM301400 VRB03KT 6SM HZ SCT009 BKN015
     FM301530 VRB03KT P6SM SCT015 BKN025
     FM302000 09006KT P6SM SCT025
     FM310500 00000KT 4SM BR SKC
     FM311300 20004KT P6SM SKC=



000
FTUS43 KLOT 301134
TAFGYY
TAF
KGYY 301134Z 3012/3112 00000KT 1 1/2SM BR OVC002
     FM301330 01004KT 4SM HZ SCT005 BKN009
     FM301600 02005KT P6SM SCT010 BKN025
     FM302000 03007KT P6SM SCT025
     FM310300 00000KT 4SM BR SKC=



000
FTUS43 KLOT 301134
TAFGYY
TAF
KGYY 301134Z 3012/3112 00000KT 1 1/2SM BR OVC002
     FM301330 01004KT 4SM HZ SCT005 BKN009
     FM301600 02005KT P6SM SCT010 BKN025
     FM302000 03007KT P6SM SCT025
     FM310300 00000KT 4SM BR SKC=



000
FTUS43 KLOT 301134
TAFMDW
TAF
KMDW 301134Z 3012/3112 02004KT 4SM BR OVC006
     FM301400 VRB03KT 6SM HZ SCT009 BKN015
     FM301530 VRB03KT P6SM SCT015 BKN025
     FM302000 09006KT P6SM SCT025
     FM310500 00000KT 4SM BR SKC=



000
FTUS43 KLOT 301134
TAFDPA
TAF
KDPA 301134Z 3012/3112 02004KT 4SM BR OVC007
     FM301330 VRB03KT 6SM HZ SCT009 BKN015
     FM301530 VRB03KT P6SM SCT015 BKN025
     FM302000 VRB03KT P6SM SCT025
     FM310300 00000KT 3SM BR SKC=



000
FTUS43 KLOT 301134
TAFRFD
TAF
KRFD 301134Z 3012/3112 00000KT 5SM BR SCT007 OVC025
     FM301500 VRB03KT P6SM SCT015 BKN025
     FM301800 VRB03KT P6SM SCT025=



000
FTUS43 KLOT 300904 AAA
TAFORD
TAF AMD
KORD 300904Z 3009/3112 02004KT 4SM BR OVC007
     FM301400 VRB03KT 6SM HZ SCT009 BKN015
     FM301530 VRB03KT P6SM SCT015 BKN025
     FM302000 09006KT P6SM SCT025
     FM310300 00000KT 4SM BR SKC=



000
FTUS43 KLOT 300904 AAA
TAFMDW
TAF AMD
KMDW 300904Z 3009/3106 02004KT 3SM BR OVC006
     FM301400 VRB03KT 6SM HZ SCT009 BKN015
     FM301530 VRB03KT P6SM SCT015 BKN025
     FM302000 09006KT P6SM SCT025
     FM310300 00000KT 4SM BR SKC=



000
FTUS43 KLOT 300904 AAA
TAFDPA
TAF AMD
KDPA 300904Z 3009/3106 02004KT 4SM BR OVC007
     FM301300 VRB03KT 6SM HZ SCT009 BKN015
     FM301530 VRB03KT P6SM SCT015 BKN025
     FM302000 VRB03KT P6SM SCT025
     FM310300 00000KT 3SM BR SKC=



000
FTUS43 KLOT 300904 AAA
TAFGYY
TAF AMD
KGYY 300904Z 3009/3106 00000KT 1 1/2SM BR OVC002
      TEMPO 3009/3013 1/2SM FG
     FM301400 02004KT 3SM HZ SCT005 BKN009
     FM301600 03005KT P6SM SCT010 BKN025
     FM302000 03007KT P6SM SCT025
     FM310300 00000KT 4SM BR SKC=



000
FTUS43 KLOT 300904 AAA
TAFRFD
TAF AMD
KRFD 300904Z 3009/3106 00000KT 6SM BR SCT007 OVC025
      TEMPO 3009/3013 4SM BR OVC007
     FM301500 00000KT P6SM SCT010 BKN020
     FM301800 VRB03KT P6SM SCT025=



000
FTUS43 KLOT 300904 AAA
TAFGYY
TAF AMD
KGYY 300904Z 3009/3106 00000KT 1 1/2SM BR OVC002
      TEMPO 3009/3013 1/2SM FG
     FM301400 02004KT 3SM HZ SCT005 BKN009
     FM301600 03005KT P6SM SCT010 BKN025
     FM302000 03007KT P6SM SCT025
     FM310300 00000KT 4SM BR SKC=



000
FTUS43 KLOT 300540
TAFDPA
TAF
KDPA 300540Z 3006/3106 VRB03KT 3SM BR OVC005
     FM300700 02004KT 2SM BR OVC004
     FM301000 00000KT 1SM BR OVC003
     FM301400 00000KT 4SM HZ SCT005 BKN009
     FM301600 00000KT P6SM SCT010 BKN025
     FM302000 VRB03KT P6SM SCT025
     FM310300 00000KT 3SM BR SKC=



000
FTUS43 KLOT 300540
TAFMDW
TAF
KMDW 300540Z 3006/3106 02004KT 2SM BR OVC004
     FM301000 VRB03KT 1SM BR OVC003
     FM301400 VRB03KT 4SM HZ SCT005 BKN009
     FM301600 VRB03KT P6SM SCT010 BKN025
     FM302000 09006KT P6SM SCT025
     FM310300 00000KT 4SM BR SKC=



000
FTUS43 KLOT 300540
TAFRFD
TAF
KRFD 300540Z 3006/3106 03003KT 6SM BR SCT005 OVC025
     FM301000 00000KT 3SM BR BKN006 OVC020
     FM301500 00000KT P6SM SCT007 BKN020
     FM301800 VRB03KT P6SM SCT025=



000
FTUS43 KLOT 300540
TAFORD
TAF
KORD 300540Z 3006/3112 02006KT 3SM BR OVC005
     FM300700 02004KT 2SM BR OVC004
     FM301000 VRB03KT 1SM BR OVC003
     FM301400 VRB03KT 4SM HZ SCT005 BKN009
     FM301600 VRB03KT P6SM SCT010 BKN025
     FM302000 09006KT P6SM SCT025
     FM310300 00000KT 4SM BR SKC=



000
FTUS43 KLOT 300540
TAFGYY
TAF
KGYY 300540Z 3006/3106 00000KT 3SM BR OVC015
     FM300800 00000KT 1 1/2SM BR OVC005
     FM301400 02004KT 4SM HZ SCT005 BKN009
     FM301600 03005KT P6SM SCT010 BKN025
     FM302000 03007KT P6SM SCT025
     FM310300 00000KT 4SM BR SKC=



000
FTUS43 KLOT 300540
TAFGYY
TAF
KGYY 300540Z 3006/3106 00000KT 3SM BR OVC015
     FM300800 00000KT 1 1/2SM BR OVC005
     FM301400 02004KT 4SM HZ SCT005 BKN009
     FM301600 03005KT P6SM SCT010 BKN025
     FM302000 03007KT P6SM SCT025
     FM310300 00000KT 4SM BR SKC=



000
FTUS43 KLOT 300304 AAB
TAFGYY
TAF AMD
KGYY 300304Z 3003/3024 VRB03KT 6SM BR SCT020 OVC040
     FM300500 VRB03KT 1SM BR OVC005
     FM300700 02003KT 1/2SM FG OVC005
     FM301400 02004KT 3SM HZ SCT005 BKN009
     FM301800 09006KT P6SM SCT010 BKN025
     FM302300 12004KT P6SM SCT025=



000
FTUS43 KLOT 300304 AAA
TAFDPA
TAF AMD
KDPA 300304Z 3003/3024 03003KT 1SM BR SCT005 OVC012
     FM300500 03003KT 1/2SM FG OVC003
      TEMPO 3008/3012 1/4SM FG
     FM301400 06004KT 3SM HZ SCT005 BKN009
     FM301800 09006KT P6SM SCT010 BKN025
     FM302300 12004KT P6SM SCT025=



000
FTUS43 KLOT 300304 AAC
TAFORD
TAF AMD
KORD 300304Z 3003/3106 03003KT 4SM BR SCT005 OVC012
     FM300400 02003KT 1SM BR OVC005
     FM300700 02003KT 1/2SM FG OVC005
     FM301400 06004KT 3SM HZ SCT005 BKN009
     FM301800 09006KT P6SM SCT010 BKN025
     FM302300 12004KT P6SM SCT025=



000
FTUS43 KLOT 300304 AAC
TAFMDW
TAF AMD
KMDW 300304Z 3003/3024 03003KT 1SM BR OVC005
     FM300800 02003KT 1/2SM FG OVC005
     FM301400 06004KT 3SM HZ SCT005 BKN009
     FM301800 09006KT P6SM SCT010 BKN025
     FM302300 12004KT P6SM SCT025=



000
FTUS43 KLOT 300304 AAA
TAFRFD
TAF AMD
KRFD 300304Z 3003/3024 05003KT 4SM BR BKN010 OVC025
     FM300500 03003KT 1/2SM FG OVC005
      TEMPO 3008/3012 1/4SM FG
     FM301400 VRB03KT 3SM HZ SCT005 BKN009
     FM301800 19004KT P6SM SCT010 BKN025
     FM302300 VRB02KT P6SM FEW025 SCT250=



000
FTUS43 KLOT 300304 AAB
TAFGYY
TAF AMD
KGYY 300304Z 3003/3024 VRB03KT 6SM BR SCT020 OVC040
     FM300500 VRB03KT 1SM BR OVC005
     FM300700 02003KT 1/2SM FG OVC005
     FM301400 02004KT 3SM HZ SCT005 BKN009
     FM301800 09006KT P6SM SCT010 BKN025
     FM302300 12004KT P6SM SCT025=



000
FTUS43 KLOT 300116 AAA
TAFGYY
TAF AMD
KGYY 300116Z 3001/3024 29004KT P6SM VCSH SCT015 BKN025
     FM300200 VRB03KT 4SM BR BKN010 OVC025
     FM300400 VRB03KT 1SM BR OVC005
     FM300700 02003KT 1/2SM FG OVC005
     FM301400 02004KT 3SM HZ SCT005 BKN009
     FM301800 09006KT P6SM SCT010 BKN025
     FM302300 12004KT P6SM SCT025=



000
FTUS43 KLOT 300116 AAB
TAFORD
TAF AMD
KORD 300116Z 3001/3106 03003KT 4SM BR VCSH BKN015 OVC025
      TEMPO 3001/3003 2SM -SHRA
     FM300300 02003KT 1SM BR OVC005
     FM300700 02003KT 1/2SM FG OVC005
     FM301400 06004KT 3SM HZ SCT005 BKN009
     FM301800 09006KT P6SM SCT010 BKN025
     FM302300 12004KT P6SM SCT025=



000
FTUS43 KLOT 300116 AAB
TAFMDW
TAF AMD
KMDW 300116Z 3001/3024 03003KT 4SM BR VCSH BKN015 OVC025
      TEMPO 3001/3003 2SM -SHRA
     FM300400 03003KT 1SM BR OVC005
     FM300800 02003KT 1/2SM FG OVC005
     FM301400 06004KT 3SM HZ SCT005 BKN009
     FM301800 09006KT P6SM SCT010 BKN025
     FM302300 12004KT P6SM SCT025=



000
FTUS43 KLOT 300116 AAA
TAFGYY
TAF AMD
KGYY 300116Z 3001/3024 29004KT P6SM VCSH SCT015 BKN025
     FM300200 VRB03KT 4SM BR BKN010 OVC025
     FM300400 VRB03KT 1SM BR OVC005
     FM300700 02003KT 1/2SM FG OVC005
     FM301400 02004KT 3SM HZ SCT005 BKN009
     FM301800 09006KT P6SM SCT010 BKN025
     FM302300 12004KT P6SM SCT025=



000
FTUS43 KLOT 300017 AAA
TAFMDW
TAF AMD
KMDW 300017Z 3000/3024 03003KT 4SM BR VCSH BKN015 OVC025
      TEMPO 3000/3003 2SM -SHRA
     FM300400 03003KT 1SM BR OVC005
     FM301500 06004KT 3SM HZ SCT005 BKN009
     FM301800 09006KT P6SM SCT010 BKN025
     FM302300 12004KT P6SM SCT025=



000
FTUS43 KLOT 300017 AAA
TAFORD
TAF AMD
KORD 300017Z 3000/3106 03003KT 4SM BR VCSH BKN015 OVC025
      TEMPO 3000/3003 2SM -SHRA
     FM300300 02003KT 1SM BR OVC005
     FM301500 06004KT 3SM HZ SCT005 BKN009
     FM301800 09006KT P6SM SCT010 BKN025
     FM302300 12004KT P6SM SCT025=



000
FTUS43 KLOT 300017 AAA
TAFORD
TAF AMD
KORD 300017Z 3000/3106 03003KT 4SM BR VCSH BKN015 OVC025
      TEMPO 3000/3003 2SM -SHRA
     FM300300 02003KT 1SM BR OVC005
     FM301500 06004KT 3SM HZ SCT005 BKN009
     FM301800 09006KT P6SM SCT010 BKN025
     FM302300 12004KT P6SM SCT025=



000
FTUS43 KLOT 300017 AAA
TAFMDW
TAF AMD
KMDW 300017Z 3000/3024 03003KT 4SM BR VCSH BKN015 OVC025
      TEMPO 3000/3003 2SM -SHRA
     FM300400 03003KT 1SM BR OVC005
     FM301500 06004KT 3SM HZ SCT005 BKN009
     FM301800 09006KT P6SM SCT010 BKN025
     FM302300 12004KT P6SM SCT025=



000
FTUS43 KLOT 292326
TAFRFD
TAF
KRFD 292326Z 3000/3024 35004KT P6SM SCT012 BKN020
     FM300100 05003KT 4SM BR BKN010 OVC025
     FM300400 03003KT 1/2SM FG OVC002
      TEMPO 3008/3012 1/4SM FG
     FM301500 VRB03KT 3SM HZ SCT005 BKN009
     FM301800 19004KT P6SM SCT010 BKN025
     FM302300 VRB02KT P6SM FEW025 SCT250=



000
FTUS43 KLOT 292326
TAFGYY
TAF
KGYY 292326Z 3000/3024 29004KT P6SM VCSH SCT015 BKN025
     FM300200 VRB03KT 4SM BR BKN010 OVC025
     FM300500 VRB03KT 1SM BR OVC005
     FM301500 02004KT 3SM HZ SCT005 BKN009
     FM301800 09006KT P6SM SCT010 BKN025
     FM302300 12004KT P6SM SCT025=



000
FTUS43 KLOT 292326
TAFORD
TAF
KORD 292326Z 3000/3106 02004KT P6SM VCSH BKN015 BKN040
     FM300100 03003KT 4SM BR BKN010 OVC025
     FM300400 02003KT 1SM BR OVC005
     FM301500 06004KT 3SM HZ SCT005 BKN009
     FM301800 09006KT P6SM SCT010 BKN025
     FM302300 12004KT P6SM SCT025=



000
FTUS43 KLOT 292326
TAFMDW
TAF
KMDW 292326Z 3000/3024 02004KT P6SM VCSH BKN020 BKN040
     FM300100 03003KT 4SM BR BKN010 OVC025
     FM300400 03003KT 1SM BR OVC005
     FM301500 06004KT 3SM HZ SCT005 BKN009
     FM301800 09006KT P6SM SCT010 BKN025
     FM302300 12004KT P6SM SCT025=



000
FTUS43 KLOT 292326
TAFDPA
TAF
KDPA 292326Z 3000/3024 34004KT P6SM VCSH BKN020 BKN040
     FM300100 03003KT 4SM BR BKN010 OVC025
     FM300400 03003KT 1/2SM FG OVC002
      TEMPO 3008/3012 1/4SM FG
     FM301500 06004KT 3SM HZ SCT005 BKN009
     FM301800 09006KT P6SM SCT010 BKN025
     FM302300 12004KT P6SM SCT025=



000
FTUS43 KLOT 292326
TAFGYY
TAF
KGYY 292326Z 3000/3024 29004KT P6SM VCSH SCT015 BKN025
     FM300200 VRB03KT 4SM BR BKN010 OVC025
     FM300500 VRB03KT 1SM BR OVC005
     FM301500 02004KT 3SM HZ SCT005 BKN009
     FM301800 09006KT P6SM SCT010 BKN025
     FM302300 12004KT P6SM SCT025=



000
FTUS43 KLOT 292326
TAFRFD
TAF
KRFD 292326Z 3000/3024 35004KT P6SM SCT012 BKN020
     FM300100 05003KT 4SM BR BKN010 OVC025
     FM300400 03003KT 1/2SM FG OVC002
      TEMPO 3008/3012 1/4SM FG
     FM301500 VRB03KT 3SM HZ SCT005 BKN009
     FM301800 19004KT P6SM SCT010 BKN025
     FM302300 VRB02KT P6SM FEW025 SCT250=



000
FTUS43 KLOT 292326
TAFGYY
TAF
KGYY 292326Z 3000/3024 29004KT P6SM VCSH SCT015 BKN025
     FM300200 VRB03KT 4SM BR BKN010 OVC025
     FM300500 VRB03KT 1SM BR OVC005
     FM301500 02004KT 3SM HZ SCT005 BKN009
     FM301800 09006KT P6SM SCT010 BKN025
     FM302300 12004KT P6SM SCT025=



000
FTUS43 KLOT 292326
TAFORD
TAF
KORD 292326Z 3000/3106 02004KT P6SM VCSH BKN015 BKN040
     FM300100 03003KT 4SM BR BKN010 OVC025
     FM300400 02003KT 1SM BR OVC005
     FM301500 06004KT 3SM HZ SCT005 BKN009
     FM301800 09006KT P6SM SCT010 BKN025
     FM302300 12004KT P6SM SCT025=



    US Dept of Commerce
    National Oceanic and Atmospheric Administration
    National Weather Service
    1325 East West Highway
    Silver Spring, MD 20910
    Page Author: NWS Internet Services Team
Disclaimer
Information Quality
Credits
Glossary
Privacy Policy
Freedom of Information Act (FOIA)
About Us
Career Opportunities